createdAt,value
2022-11-06T00:01:02.001Z,76.06
2022-11-06T00:03:28.175Z,76.01
2022-11-06T00:05:54.683Z,76.27
2022-11-06T00:08:20.780Z,76.27
2022-11-06T00:10:46.875Z,76.48
2022-11-06T00:13:12.997Z,76.41
2022-11-06T00:15:39.087Z,76.43
2022-11-06T00:18:05.177Z,76.62
2022-11-06T00:20:31.296Z,76.53
2022-11-06T00:22:57.394Z,76.54
2022-11-06T00:25:23.493Z,76.55
2022-11-06T00:27:49.596Z,76.56
2022-11-06T00:30:15.689Z,76.74
2022-11-06T00:32:41.784Z,76.50
2022-11-06T00:35:07.890Z,76.39
2022-11-06T00:37:33.987Z,76.73
2022-11-06T00:40:00.066Z,76.63
2022-11-06T00:42:26.196Z,76.50
2022-11-06T00:44:52.290Z,76.64
2022-11-06T00:47:18.399Z,76.21
2022-11-06T00:49:44.510Z,76.28
2022-11-06T00:52:10.599Z,76.43
2022-11-06T00:54:36.685Z,76.10
2022-11-06T00:57:02.803Z,76.06
2022-11-06T00:59:28.885Z,76.37
2022-11-06T01:01:55.124Z,76.18
2022-11-06T01:04:21.334Z,76.41
2022-11-06T01:06:47.443Z,76.00
2022-11-06T01:09:13.556Z,76.12
2022-11-06T01:12:06.662Z,76.09
2022-11-06T01:14:25.778Z,76.10
2022-11-06T01:16:51.892Z,76.23
2022-11-06T01:19:17.987Z,76.27
2022-11-06T01:21:44.080Z,76.27
2022-11-06T01:24:10.203Z,75.93
2022-11-06T01:26:39.276Z,76.24
2022-11-06T01:29:08.790Z,76.15
2022-11-06T01:31:34.916Z,76.13
2022-11-06T01:34:01.011Z,76.08
2022-11-06T01:36:27.096Z,76.22
2022-11-06T01:38:53.209Z,75.93
2022-11-06T01:41:19.304Z,76.11
2022-11-06T01:43:45.401Z,76.11
2022-11-06T01:46:11.515Z,76.12
2022-11-06T01:48:37.607Z,76.03
2022-11-06T01:51:03.702Z,75.86
2022-11-06T01:53:29.813Z,75.71
2022-11-06T01:55:55.903Z,76.03
2022-11-06T01:58:21.997Z,75.79
2022-11-06T02:00:48.118Z,75.88
2022-11-06T02:03:14.273Z,76.02
2022-11-06T02:05:40.412Z,75.96
2022-11-06T02:08:07.051Z,76.32
2022-11-06T02:10:33.139Z,76.13
2022-11-06T02:12:59.237Z,76.11
2022-11-06T02:15:25.357Z,76.25
2022-11-06T02:17:51.454Z,76.00
2022-11-06T02:20:17.560Z,76.03
2022-11-06T02:22:43.660Z,76.45
2022-11-06T02:25:09.756Z,76.46
2022-11-06T02:27:35.858Z,75.97
2022-11-06T02:30:01.975Z,76.34
2022-11-06T02:32:28.062Z,76.29
2022-11-06T02:34:54.150Z,76.37
2022-11-06T02:37:20.620Z,76.22
2022-11-06T02:39:46.727Z,76.35
2022-11-06T02:42:12.820Z,76.23
2022-11-06T02:44:38.922Z,76.34
2022-11-06T02:47:05.020Z,76.38
2022-11-06T02:49:31.117Z,76.40
2022-11-06T02:51:57.234Z,76.36
2022-11-06T02:54:23.337Z,76.59
2022-11-06T02:56:49.422Z,76.30
2022-11-06T02:59:15.546Z,76.41
2022-11-06T03:01:41.744Z,76.57
2022-11-06T03:04:07.964Z,76.58
2022-11-06T03:06:34.075Z,76.46
2022-11-06T03:09:00.185Z,76.37
2022-11-06T03:11:26.280Z,76.58
2022-11-06T03:13:53.236Z,76.68
2022-11-06T03:16:19.327Z,76.46
2022-11-06T03:18:45.425Z,76.92
2022-11-06T03:21:11.582Z,76.57
2022-11-06T03:23:37.679Z,76.98
2022-11-06T03:26:03.786Z,76.78
2022-11-06T03:28:29.900Z,77.04
2022-11-06T03:30:55.993Z,76.78
2022-11-06T03:33:22.072Z,76.64
2022-11-06T03:35:48.166Z,76.67
2022-11-06T03:38:14.562Z,76.81
2022-11-06T03:40:40.905Z,76.91
2022-11-06T03:43:07.008Z,77.21
2022-11-06T03:45:33.101Z,77.23
2022-11-06T03:47:59.208Z,77.07
2022-11-06T03:50:25.328Z,76.93
2022-11-06T03:52:51.451Z,76.96
2022-11-06T03:55:17.551Z,77.21
2022-11-06T03:57:43.665Z,77.26
2022-11-06T04:00:09.751Z,77.04
2022-11-06T04:02:36.095Z,77.30
2022-11-06T04:05:02.291Z,77.50
2022-11-06T04:07:28.391Z,77.14
2022-11-06T04:09:54.485Z,77.42
2022-11-06T04:12:20.601Z,77.12
2022-11-06T04:14:46.706Z,77.21
2022-11-06T04:17:12.813Z,77.56
2022-11-06T04:19:38.926Z,77.41
2022-11-06T04:22:05.025Z,77.28
2022-11-06T04:24:31.116Z,77.26
2022-11-06T04:26:57.235Z,77.38
2022-11-06T04:29:23.337Z,77.25
2022-11-06T04:31:49.430Z,77.23
2022-11-06T04:34:15.543Z,77.62
2022-11-06T04:36:41.619Z,77.35
2022-11-06T04:39:07.698Z,77.39
2022-11-06T04:41:33.809Z,77.71
2022-11-06T04:43:59.893Z,77.53
2022-11-06T04:46:25.973Z,77.53
2022-11-06T04:48:52.090Z,77.76
2022-11-06T04:51:18.170Z,77.43
2022-11-06T04:53:44.256Z,77.53
2022-11-06T04:56:10.371Z,77.65
2022-11-06T04:58:36.455Z,77.51
2022-11-06T05:01:02.632Z,77.22
2022-11-06T05:03:28.844Z,77.45
2022-11-06T05:05:54.936Z,77.30
2022-11-06T05:08:21.049Z,77.59
2022-11-06T05:10:47.181Z,77.22
2022-11-06T05:13:13.261Z,77.53
2022-11-06T05:15:39.347Z,77.29
2022-11-06T05:18:05.451Z,77.41
2022-11-06T05:20:31.532Z,77.38
2022-11-06T05:22:57.616Z,77.29
2022-11-06T05:25:23.784Z,77.28
2022-11-06T05:27:49.886Z,77.35
2022-11-06T05:30:16.000Z,77.52
2022-11-06T05:32:42.119Z,77.59
2022-11-06T05:35:08.215Z,77.39
2022-11-06T05:37:34.305Z,77.26
2022-11-06T05:40:00.426Z,77.33
2022-11-06T05:42:26.534Z,77.25
2022-11-06T05:44:52.633Z,77.33
2022-11-06T05:47:18.741Z,77.48
2022-11-06T05:49:44.838Z,77.32
2022-11-06T05:52:10.920Z,77.23
2022-11-06T05:54:37.064Z,77.37
2022-11-06T05:57:03.157Z,77.27
2022-11-06T05:59:29.247Z,77.43
2022-11-06T06:01:55.406Z,77.23
2022-11-06T06:04:21.736Z,77.42
2022-11-06T06:06:47.839Z,77.37
2022-11-06T06:09:13.963Z,76.99
2022-11-06T06:11:40.056Z,77.39
2022-11-06T06:14:06.161Z,77.41
2022-11-06T06:16:32.921Z,77.16
2022-11-06T06:18:59.007Z,77.48
2022-11-06T06:21:25.144Z,77.27
2022-11-06T06:23:51.258Z,77.27
2022-11-06T06:26:17.360Z,77.29
2022-11-06T06:28:43.455Z,77.11
2022-11-06T06:31:10.059Z,77.42
2022-11-06T06:33:36.166Z,77.40
2022-11-06T06:36:02.253Z,77.48
2022-11-06T06:38:28.365Z,77.38
2022-11-06T06:40:54.473Z,77.21
2022-11-06T06:43:20.579Z,77.47
2022-11-06T06:45:46.685Z,77.52
2022-11-06T06:48:12.950Z,77.78
2022-11-06T06:50:39.292Z,77.63
2022-11-06T06:53:05.405Z,77.42
2022-11-06T06:55:31.503Z,77.45
2022-11-06T06:57:57.613Z,77.33
2022-11-06T07:00:23.727Z,77.49
2022-11-06T07:02:49.829Z,77.32
2022-11-06T07:05:15.945Z,77.61
2022-11-06T07:07:42.062Z,77.53
2022-11-06T07:10:08.152Z,77.58
2022-11-06T07:12:34.245Z,77.20
2022-11-06T07:15:00.388Z,77.27
2022-11-06T07:17:26.479Z,77.38
2022-11-06T07:19:52.572Z,77.37
2022-11-06T07:22:23.426Z,77.35
2022-11-06T07:24:55.747Z,76.98
2022-11-06T07:27:21.875Z,77.45
2022-11-06T07:29:47.967Z,77.11
2022-11-06T07:32:14.082Z,77.16
2022-11-06T07:34:40.311Z,77.10
2022-11-06T07:37:07.696Z,77.35
2022-11-06T07:39:34.003Z,77.45
2022-11-06T07:42:00.144Z,77.33
2022-11-06T07:44:26.244Z,77.35
2022-11-06T07:46:52.368Z,77.05
2022-11-06T07:49:18.480Z,77.33
2022-11-06T07:51:44.581Z,77.32
2022-11-06T07:54:10.712Z,77.02
2022-11-06T07:56:36.807Z,77.25
2022-11-06T07:59:02.903Z,77.18
2022-11-06T08:01:29.042Z,77.11
2022-11-06T08:03:55.213Z,77.28
2022-11-06T08:06:21.322Z,77.19
2022-11-06T08:08:47.430Z,77.03
2022-11-06T08:11:13.537Z,77.11
2022-11-06T08:13:39.663Z,77.24
2022-11-06T08:16:05.768Z,77.03
2022-11-06T08:18:31.895Z,77.05
2022-11-06T08:20:57.994Z,77.11
2022-11-06T08:23:24.095Z,77.07
2022-11-06T08:25:50.208Z,76.87
2022-11-06T08:28:16.539Z,76.66
2022-11-06T08:30:42.845Z,76.73
2022-11-06T08:33:08.964Z,76.77
2022-11-06T08:35:35.087Z,76.83
2022-11-06T08:38:01.181Z,76.73
2022-11-06T08:40:30.931Z,76.53
2022-11-06T08:42:57.521Z,76.48
2022-11-06T08:45:23.616Z,76.62
2022-11-06T08:47:49.724Z,76.22
2022-11-06T08:50:15.815Z,76.43
2022-11-06T08:52:41.903Z,76.39
2022-11-06T08:55:08.007Z,76.13
2022-11-06T08:57:34.092Z,76.17
2022-11-06T09:00:00.198Z,76.08
2022-11-06T09:02:26.344Z,75.93
2022-11-06T09:04:52.523Z,75.97
2022-11-06T09:07:18.608Z,75.84
2022-11-06T09:09:44.702Z,75.79
2022-11-06T09:12:10.849Z,75.48
2022-11-06T09:14:37.032Z,75.41
2022-11-06T09:17:03.152Z,75.34
2022-11-06T09:19:29.279Z,75.18
2022-11-06T09:21:55.375Z,75.12
2022-11-06T09:24:43.263Z,74.97
2022-11-06T09:27:07.915Z,74.82
2022-11-06T09:29:34.015Z,74.51
2022-11-06T09:32:00.111Z,74.63
2022-11-06T09:34:27.746Z,74.29
2022-11-06T09:36:53.855Z,74.15
2022-11-06T09:39:19.964Z,73.89
2022-11-06T09:41:46.053Z,73.64
2022-11-06T09:44:12.204Z,73.49
2022-11-06T09:46:38.300Z,73.24
2022-11-06T09:49:04.385Z,72.88
2022-11-06T09:51:30.504Z,72.45
2022-11-06T09:53:56.902Z,72.40
2022-11-06T09:56:23.318Z,72.06
2022-11-06T09:58:49.419Z,71.78
2022-11-06T10:01:22.060Z,71.55
2022-11-06T10:03:50.892Z,71.35
2022-11-06T10:06:16.998Z,71.10
2022-11-06T10:08:43.088Z,71.03
2022-11-06T10:11:09.206Z,70.66
2022-11-06T10:13:35.304Z,70.45
2022-11-06T10:16:01.383Z,70.24
2022-11-06T10:18:27.500Z,70.04
2022-11-06T10:20:53.679Z,69.78
2022-11-06T10:23:19.815Z,69.65
2022-11-06T10:25:45.931Z,69.28
2022-11-06T10:28:12.382Z,69.03
2022-11-06T10:30:38.702Z,68.83
2022-11-06T10:33:04.894Z,68.75
2022-11-06T10:35:30.983Z,68.58
2022-11-06T10:37:57.071Z,68.50
2022-11-06T10:40:23.170Z,68.34
2022-11-06T10:42:49.250Z,68.12
2022-11-06T10:45:15.344Z,68.03
2022-11-06T10:47:41.471Z,67.80
2022-11-06T10:50:07.564Z,67.65
2022-11-06T10:52:33.660Z,67.18
2022-11-06T10:54:59.776Z,67.16
2022-11-06T10:57:26.300Z,66.83
2022-11-06T10:59:52.406Z,66.59
2022-11-06T11:02:18.564Z,66.39
2022-11-06T11:04:44.689Z,66.38
2022-11-06T11:07:10.784Z,66.32
2022-11-06T11:09:36.913Z,66.14
2022-11-06T11:12:03.016Z,65.97
2022-11-06T11:14:29.107Z,65.77
2022-11-06T11:16:55.206Z,65.53
2022-11-06T11:19:21.305Z,65.31
2022-11-06T11:21:47.409Z,65.06
2022-11-06T11:24:13.508Z,64.96
2022-11-06T11:26:39.606Z,64.79
2022-11-06T11:29:05.696Z,64.45
2022-11-06T11:31:31.802Z,64.29
2022-11-06T11:33:57.892Z,63.94
2022-11-06T11:36:23.980Z,63.81
2022-11-06T11:38:50.122Z,63.71
2022-11-06T11:41:16.202Z,63.75
2022-11-06T11:43:42.299Z,63.57
2022-11-06T11:46:08.462Z,63.45
2022-11-06T11:48:34.562Z,63.16
2022-11-06T11:51:00.677Z,63.04
2022-11-06T11:53:26.783Z,62.64
2022-11-06T11:55:52.879Z,62.38
2022-11-06T11:58:18.985Z,61.82
2022-11-06T12:00:45.090Z,61.66
2022-11-06T12:03:11.238Z,61.52
2022-11-06T12:05:37.457Z,61.21
2022-11-06T12:08:03.572Z,60.90
2022-11-06T12:10:29.675Z,60.99
2022-11-06T12:12:55.773Z,60.97
2022-11-06T12:15:21.880Z,60.87
2022-11-06T12:17:47.968Z,60.75
2022-11-06T12:20:14.072Z,60.74
2022-11-06T12:22:40.184Z,60.65
2022-11-06T12:25:06.262Z,60.68
2022-11-06T12:27:32.353Z,60.53
2022-11-06T12:29:58.458Z,60.51
2022-11-06T12:32:24.551Z,60.42
2022-11-06T12:34:50.691Z,60.45
2022-11-06T12:37:16.802Z,60.56
2022-11-06T12:39:42.911Z,60.49
2022-11-06T12:42:09.021Z,60.47
2022-11-06T12:44:35.137Z,60.31
2022-11-06T12:47:01.236Z,60.22
2022-11-06T12:49:27.334Z,60.13
2022-11-06T12:51:53.747Z,60.09
2022-11-06T12:54:19.826Z,59.97
2022-11-06T12:56:45.902Z,59.92
2022-11-06T12:59:12.020Z,59.86
2022-11-06T13:01:38.233Z,59.83
2022-11-06T13:04:04.412Z,60.03
2022-11-06T13:06:30.522Z,59.81
2022-11-06T13:08:56.653Z,59.80
2022-11-06T13:11:22.750Z,59.98
2022-11-06T13:13:48.863Z,59.66
2022-11-06T13:16:14.961Z,59.59
2022-11-06T13:18:41.070Z,59.60
2022-11-06T13:21:07.186Z,59.30
2022-11-06T13:23:33.277Z,59.23
2022-11-06T13:25:59.373Z,59.17
2022-11-06T13:28:25.479Z,59.31
2022-11-06T13:30:51.590Z,59.30
2022-11-06T13:33:17.690Z,59.29
2022-11-06T13:35:43.914Z,59.14
2022-11-06T13:38:10.052Z,59.09
2022-11-06T13:40:36.172Z,59.04
2022-11-06T13:43:02.332Z,59.04
2022-11-06T13:45:28.432Z,59.04
2022-11-06T13:47:54.522Z,59.01
2022-11-06T13:50:20.622Z,58.98
2022-11-06T13:52:46.708Z,58.66
2022-11-06T13:55:12.797Z,58.63
2022-11-06T13:57:38.904Z,58.36
2022-11-06T14:00:05.002Z,58.21
2022-11-06T14:02:31.291Z,58.24
2022-11-06T14:04:57.605Z,58.22
2022-11-06T14:07:23.697Z,58.08
2022-11-06T14:09:49.776Z,58.26
2022-11-06T14:12:15.879Z,57.94
2022-11-06T14:14:41.955Z,57.65
2022-11-06T14:17:08.053Z,57.53
2022-11-06T14:19:34.166Z,57.40
2022-11-06T14:22:00.261Z,57.13
2022-11-06T14:24:26.352Z,56.60
2022-11-06T14:26:52.458Z,56.37
2022-11-06T14:29:18.554Z,56.10
2022-11-06T14:31:44.652Z,55.89
2022-11-06T14:34:10.763Z,55.79
2022-11-06T14:36:36.858Z,55.50
2022-11-06T14:39:02.943Z,55.25
2022-11-06T14:41:29.060Z,55.36
2022-11-06T14:43:55.211Z,55.21
2022-11-06T14:46:22.571Z,55.03
2022-11-06T14:48:48.969Z,54.71
2022-11-06T14:51:15.114Z,54.79
2022-11-06T14:53:41.212Z,54.59
2022-11-06T14:56:07.819Z,54.49
2022-11-06T14:58:33.913Z,54.16
2022-11-06T15:01:00.047Z,54.34
2022-11-06T15:03:26.240Z,54.40
2022-11-06T15:05:52.953Z,54.35
2022-11-06T15:08:19.306Z,54.22
2022-11-06T15:10:45.666Z,54.38
2022-11-06T15:13:12.119Z,54.44
2022-11-06T15:15:38.457Z,54.29
2022-11-06T15:18:04.567Z,54.37
2022-11-06T15:20:30.663Z,54.36
2022-11-06T15:22:56.744Z,54.28
2022-11-06T15:25:22.841Z,54.15
2022-11-06T15:27:48.940Z,54.11
2022-11-06T15:30:15.039Z,53.85
2022-11-06T15:32:41.158Z,53.68
2022-11-06T15:35:07.257Z,53.40
2022-11-06T15:37:33.356Z,53.25
2022-11-06T15:40:01.621Z,52.90
2022-11-06T15:42:27.965Z,52.53
2022-11-06T15:44:54.060Z,52.19
2022-11-06T15:47:20.174Z,52.04
2022-11-06T15:49:46.270Z,51.88
2022-11-06T15:52:12.362Z,51.78
2022-11-06T15:54:38.466Z,51.91
2022-11-06T15:57:04.560Z,51.65
2022-11-06T15:59:30.923Z,51.41
2022-11-06T16:01:57.638Z,51.36
2022-11-06T16:04:23.843Z,51.44
2022-11-06T16:06:49.946Z,51.32
2022-11-06T16:09:16.053Z,51.38
2022-11-06T16:11:42.146Z,51.25
2022-11-06T16:14:08.250Z,51.12
2022-11-06T16:16:34.353Z,51.14
2022-11-06T16:19:00.440Z,51.04
2022-11-06T16:21:26.571Z,51.14
2022-11-06T16:23:52.674Z,51.10
2022-11-06T16:26:18.767Z,51.29
2022-11-06T16:28:44.915Z,51.47
2022-11-06T16:31:11.091Z,51.81
2022-11-06T16:33:37.188Z,52.13
2022-11-06T16:36:03.284Z,52.46
2022-11-06T16:38:44.755Z,52.65
2022-11-06T16:41:10.874Z,53.07
2022-11-06T16:43:37.472Z,53.11
2022-11-06T16:46:03.562Z,53.53
2022-11-06T16:48:29.660Z,53.70
2022-11-06T16:50:55.813Z,54.10
2022-11-06T16:53:21.923Z,54.38
2022-11-06T16:55:48.006Z,54.73
2022-11-06T16:58:14.119Z,55.08
2022-11-06T17:00:40.228Z,55.65
2022-11-06T17:03:06.332Z,56.16
2022-11-06T17:05:32.436Z,56.68
2022-11-06T17:07:58.531Z,57.10
2022-11-06T17:10:24.625Z,57.52
2022-11-06T17:12:50.747Z,57.73
2022-11-06T17:15:16.855Z,58.15
2022-11-06T17:17:42.943Z,58.52
2022-11-06T17:20:09.045Z,58.90
2022-11-06T17:22:35.140Z,59.05
2022-11-06T17:25:01.273Z,59.36
2022-11-06T17:27:27.386Z,59.61
2022-11-06T17:29:53.480Z,60.14
2022-11-06T17:32:19.577Z,60.56
2022-11-06T17:34:45.719Z,60.59
2022-11-06T17:37:11.794Z,60.65
2022-11-06T17:39:37.886Z,60.76
2022-11-06T17:42:04.039Z,60.99
2022-11-06T17:44:30.120Z,61.34
2022-11-06T17:46:56.212Z,61.34
2022-11-06T17:49:22.329Z,61.63
2022-11-06T17:51:48.427Z,61.53
2022-11-06T17:54:14.502Z,61.68
2022-11-06T17:56:40.619Z,61.87
2022-11-06T17:59:06.695Z,61.65
2022-11-06T18:01:32.950Z,61.61
2022-11-06T18:03:59.172Z,61.87
2022-11-06T18:06:25.268Z,61.84
2022-11-06T18:08:51.372Z,61.58
2022-11-06T18:11:17.982Z,61.64
2022-11-06T18:13:44.074Z,61.63
2022-11-06T18:16:10.168Z,61.56
2022-11-06T18:18:36.291Z,61.58
2022-11-06T18:21:02.385Z,61.67
2022-11-06T18:23:28.478Z,61.58
2022-11-06T18:25:54.592Z,61.67
2022-11-06T18:28:20.688Z,61.64
2022-11-06T18:30:46.786Z,61.79
2022-11-06T18:33:12.900Z,61.87
2022-11-06T18:35:39.009Z,61.92
2022-11-06T18:38:05.109Z,61.68
2022-11-06T18:40:31.220Z,61.82
2022-11-06T18:42:57.325Z,61.87
2022-11-06T18:45:23.421Z,62.00
2022-11-06T18:47:49.523Z,62.02
2022-11-06T18:50:15.609Z,62.31
2022-11-06T18:52:57.026Z,62.23
2022-11-06T18:55:24.246Z,62.13
2022-11-06T18:57:50.327Z,62.21
2022-11-06T19:00:16.427Z,62.28
2022-11-06T19:02:42.628Z,62.22
2022-11-06T19:05:08.869Z,62.49
2022-11-06T19:07:35.038Z,62.45
2022-11-06T19:10:01.246Z,62.33
2022-11-06T19:12:27.376Z,62.25
2022-11-06T19:14:53.469Z,62.28
2022-11-06T19:17:19.594Z,62.34
2022-11-06T19:19:45.691Z,62.12
2022-11-06T19:22:11.783Z,62.20
2022-11-06T19:24:37.892Z,62.34
2022-11-06T19:27:04.013Z,62.08
2022-11-06T19:29:30.129Z,62.15
2022-11-06T19:31:56.252Z,62.19
2022-11-06T19:34:22.340Z,62.36
2022-11-06T19:36:48.437Z,62.23
2022-11-06T19:39:14.547Z,62.28
2022-11-06T19:41:40.625Z,62.32
2022-11-06T19:44:06.718Z,62.65
2022-11-06T19:46:36.112Z,62.56
2022-11-06T19:49:02.617Z,62.74
2022-11-06T19:51:28.707Z,62.62
2022-11-06T19:53:54.827Z,63.01
2022-11-06T19:56:20.984Z,62.97
2022-11-06T19:58:47.092Z,62.74
2022-11-06T20:01:13.401Z,62.95
2022-11-06T20:03:39.637Z,62.88
2022-11-06T20:06:07.967Z,63.09
2022-11-06T20:08:34.438Z,63.33
2022-11-06T20:11:00.524Z,63.20
2022-11-06T20:13:26.646Z,63.46
2022-11-06T20:15:52.815Z,63.47
2022-11-06T20:18:18.915Z,63.64
2022-11-06T20:20:45.027Z,63.47
2022-11-06T20:23:11.273Z,63.52
2022-11-06T20:25:37.601Z,63.79
2022-11-06T20:28:03.684Z,63.84
2022-11-06T20:30:29.791Z,64.16
2022-11-06T20:32:55.880Z,64.26
2022-11-06T20:35:21.978Z,64.14
2022-11-06T20:37:48.091Z,64.49
2022-11-06T20:40:14.180Z,64.57
2022-11-06T20:42:40.317Z,64.83
2022-11-06T20:45:06.438Z,64.60
2022-11-06T20:47:32.544Z,64.88
2022-11-06T20:49:58.641Z,65.00
2022-11-06T20:52:24.762Z,65.19
2022-11-06T20:54:50.861Z,65.29
2022-11-06T20:57:16.977Z,65.51
2022-11-06T20:59:43.100Z,65.69
2022-11-06T21:02:09.348Z,65.93
2022-11-06T21:04:35.484Z,65.91
2022-11-06T21:07:01.619Z,66.22
2022-11-06T21:09:27.730Z,66.37
2022-11-06T21:11:53.836Z,66.43
2022-11-06T21:14:19.956Z,66.91
2022-11-06T21:16:46.042Z,66.95
2022-11-06T21:19:12.127Z,67.25
2022-11-06T21:21:38.533Z,67.47
2022-11-06T21:24:04.648Z,67.71
2022-11-06T21:26:30.750Z,67.85
2022-11-06T21:28:56.861Z,68.04
2022-11-06T21:31:22.950Z,68.23
2022-11-06T21:33:49.047Z,68.36
2022-11-06T21:36:15.163Z,68.27
2022-11-06T21:38:41.256Z,68.43
2022-11-06T21:41:07.373Z,68.63
2022-11-06T21:43:33.487Z,68.54
2022-11-06T21:45:59.571Z,68.82
2022-11-06T21:48:45.074Z,68.79
2022-11-06T21:51:12.548Z,68.75
2022-11-06T21:53:38.654Z,69.02
2022-11-06T21:56:04.820Z,69.06
2022-11-06T21:58:30.933Z,69.10
2022-11-06T22:00:57.062Z,69.51
2022-11-06T22:03:23.151Z,69.54
2022-11-06T22:05:49.267Z,69.61
2022-11-06T22:08:15.604Z,69.92
2022-11-06T22:10:41.930Z,70.13
2022-11-06T22:13:08.041Z,70.12
2022-11-06T22:15:34.146Z,70.23
2022-11-06T22:18:00.255Z,70.49
2022-11-06T22:20:26.373Z,70.58
2022-11-06T22:22:52.457Z,70.65
2022-11-06T22:25:18.552Z,70.72
2022-11-06T22:27:44.669Z,70.86
2022-11-06T22:30:10.761Z,70.77
2022-11-06T22:32:36.860Z,70.85
2022-11-06T22:35:02.963Z,70.88
2022-11-06T22:37:29.072Z,71.13
2022-11-06T22:39:55.170Z,71.35
2022-11-06T22:42:21.299Z,71.53
2022-11-06T22:44:47.487Z,71.42
2022-11-06T22:47:13.734Z,71.70
2022-11-06T22:49:39.864Z,71.71
2022-11-06T22:52:05.961Z,71.83
2022-11-06T22:54:32.065Z,71.95
2022-11-06T22:56:58.174Z,71.99
2022-11-06T22:59:24.255Z,72.25
2022-11-06T23:01:50.415Z,72.40
2022-11-06T23:04:16.566Z,72.45
2022-11-06T23:06:42.655Z,72.36
2022-11-06T23:09:08.756Z,72.52
2022-11-06T23:11:34.859Z,72.62
2022-11-06T23:14:05.943Z,72.66
2022-11-06T23:16:34.558Z,72.63
2022-11-06T23:19:00.711Z,72.76
2022-11-06T23:21:26.802Z,72.89
2022-11-06T23:23:52.925Z,72.92
2022-11-06T23:26:19.089Z,73.07
2022-11-06T23:28:45.200Z,72.96
2022-11-06T23:31:11.325Z,73.16
2022-11-06T23:33:37.446Z,73.09
2022-11-06T23:36:03.546Z,73.23
2022-11-06T23:38:29.634Z,73.19
2022-11-06T23:40:55.749Z,73.19
2022-11-06T23:43:21.837Z,73.20
2022-11-06T23:45:47.940Z,73.13
2022-11-06T23:48:14.071Z,73.27
2022-11-06T23:50:40.179Z,73.36
2022-11-06T23:53:06.288Z,73.55
2022-11-06T23:55:33.372Z,73.50
2022-11-06T23:57:59.483Z,73.69
